sensor_id;sensor_type;location;lat;lon;timestamp;P1;durP1;ratioP1;P2;durP2;ratioP2
30327;SDS011;17133;52.418;13.398;2022-09-11T00:01:03;8.05;;;7.25;;
30327;SDS011;17133;52.418;13.398;2022-09-11T00:03:30;8.52;;;7.63;;
30327;SDS011;17133;52.418;13.398;2022-09-11T00:06:00;9.35;;;6.95;;
30327;SDS011;17133;52.418;13.398;2022-09-11T00:08:27;8.05;;;7.10;;
30327;SDS011;17133;52.418;13.398;2022-09-11T00:11:00;10.25;;;8.30;;
30327;SDS011;17133;52.418;13.398;2022-09-11T00:13:27;12.07;;;8.60;;
30327;SDS011;17133;52.418;13.398;2022-09-11T00:15:53;8.57;;;6.80;;
30327;SDS011;17133;52.418;13.398;2022-09-11T00:18:19;8.93;;;7.72;;
30327;SDS011;17133;52.418;13.398;2022-09-11T00:20:52;8.07;;;7.00;;
30327;SDS011;17133;52.418;13.398;2022-09-11T00:23:19;8.15;;;7.28;;
30327;SDS011;17133;52.418;13.398;2022-09-11T00:25:47;8.82;;;7.10;;
30327;SDS011;17133;52.418;13.398;2022-09-11T00:28:18;9.02;;;7.60;;
30327;SDS011;17133;52.418;13.398;2022-09-11T00:30:44;8.73;;;7.70;;
30327;SDS011;17133;52.418;13.398;2022-09-11T00:33:10;8.63;;;7.18;;
30327;SDS011;17133;52.418;13.398;2022-09-11T00:35:37;8.77;;;7.88;;
30327;SDS011;17133;52.418;13.398;2022-09-11T00:38:03;9.32;;;7.78;;
30327;SDS011;17133;52.418;13.398;2022-09-11T00:40:29;10.73;;;8.77;;
30327;SDS011;17133;52.418;13.398;2022-09-11T00:42:55;9.57;;;7.25;;
30327;SDS011;17133;52.418;13.398;2022-09-11T00:45:25;9.20;;;7.15;;
30327;SDS011;17133;52.418;13.398;2022-09-11T00:47:52;8.63;;;7.75;;
30327;SDS011;17133;52.418;13.398;2022-09-11T00:50:22;8.93;;;7.30;;
30327;SDS011;17133;52.418;13.398;2022-09-11T00:52:54;9.95;;;8.50;;
30327;SDS011;17133;52.418;13.398;2022-09-11T00:55:24;8.95;;;7.53;;
30327;SDS011;17133;52.418;13.398;2022-09-11T00:58:02;7.88;;;6.95;;
30327;SDS011;17133;52.418;13.398;2022-09-11T01:00:28;8.13;;;7.32;;
30327;SDS011;17133;52.418;13.398;2022-09-11T01:02:54;8.32;;;7.28;;
30327;SDS011;17133;52.418;13.398;2022-09-11T01:05:22;10.45;;;8.23;;
30327;SDS011;17133;52.418;13.398;2022-09-11T01:07:50;9.02;;;8.05;;
30327;SDS011;17133;52.418;13.398;2022-09-11T01:10:19;7.47;;;6.43;;
30327;SDS011;17133;52.418;13.398;2022-09-11T01:13:04;9.65;;;7.20;;
30327;SDS011;17133;52.418;13.398;2022-09-11T01:18:29;8.93;;;7.30;;
30327;SDS011;17133;52.418;13.398;2022-09-11T01:28:19;13.27;;;8.88;;
30327;SDS011;17133;52.418;13.398;2022-09-11T01:30:49;13.02;;;8.73;;
30327;SDS011;17133;52.418;13.398;2022-09-11T01:35:55;13.30;;;10.30;;
30327;SDS011;17133;52.418;13.398;2022-09-11T01:40:57;11.93;;;8.95;;
30327;SDS011;17133;52.418;13.398;2022-09-11T01:43:26;10.73;;;8.68;;
30327;SDS011;17133;52.418;13.398;2022-09-11T01:45:54;14.77;;;10.40;;
30327;SDS011;17133;52.418;13.398;2022-09-11T01:48:24;14.93;;;9.73;;
30327;SDS011;17133;52.418;13.398;2022-09-11T01:50:51;12.50;;;9.63;;
30327;SDS011;17133;52.418;13.398;2022-09-11T01:53:18;11.88;;;9.50;;
30327;SDS011;17133;52.418;13.398;2022-09-11T01:55:51;11.50;;;9.77;;
30327;SDS011;17133;52.418;13.398;2022-09-11T01:58:28;13.40;;;9.73;;
30327;SDS011;17133;52.418;13.398;2022-09-11T02:01:00;11.82;;;8.98;;
30327;SDS011;17133;52.418;13.398;2022-09-11T02:03:33;12.75;;;9.05;;
30327;SDS011;17133;52.418;13.398;2022-09-11T02:06:04;11.88;;;9.32;;
30327;SDS011;17133;52.418;13.398;2022-09-11T02:11:05;13.68;;;9.95;;
30327;SDS011;17133;52.418;13.398;2022-09-11T02:13:34;17.05;;;11.85;;
30327;SDS011;17133;52.418;13.398;2022-09-11T02:16:06;27.30;;;18.88;;
30327;SDS011;17133;52.418;13.398;2022-09-11T02:18:50;23.25;;;16.38;;
30327;SDS011;17133;52.418;13.398;2022-09-11T02:21:18;23.58;;;16.92;;
30327;SDS011;17133;52.418;13.398;2022-09-11T02:23:44;29.75;;;20.67;;
30327;SDS011;17133;52.418;13.398;2022-09-11T02:26:10;23.38;;;18.38;;
30327;SDS011;17133;52.418;13.398;2022-09-11T02:28:37;30.10;;;21.40;;
30327;SDS011;17133;52.418;13.398;2022-09-11T02:31:04;24.80;;;19.38;;
30327;SDS011;17133;52.418;13.398;2022-09-11T02:33:32;27.10;;;20.83;;
30327;SDS011;17133;52.418;13.398;2022-09-11T02:38:44;25.58;;;18.83;;
30327;SDS011;17133;52.418;13.398;2022-09-11T02:41:15;29.25;;;20.20;;
30327;SDS011;17133;52.418;13.398;2022-09-11T02:44:06;29.30;;;20.27;;
30327;SDS011;17133;52.418;13.398;2022-09-11T02:49:42;25.63;;;18.38;;
30327;SDS011;17133;52.418;13.398;2022-09-11T02:52:18;30.85;;;22.45;;
30327;SDS011;17133;52.418;13.398;2022-09-11T02:57:38;27.73;;;20.63;;
30327;SDS011;17133;52.418;13.398;2022-09-11T03:00:22;26.58;;;20.13;;
30327;SDS011;17133;52.418;13.398;2022-09-11T03:02:49;30.27;;;20.00;;
30327;SDS011;17133;52.418;13.398;2022-09-11T03:05:17;23.27;;;18.00;;
30327;SDS011;17133;52.418;13.398;2022-09-11T03:07:43;23.02;;;17.50;;
30327;SDS011;17133;52.418;13.398;2022-09-11T03:10:08;22.08;;;17.88;;
30327;SDS011;17133;52.418;13.398;2022-09-11T03:12:35;22.75;;;15.75;;
30327;SDS011;17133;52.418;13.398;2022-09-11T03:15:02;18.85;;;15.15;;
30327;SDS011;17133;52.418;13.398;2022-09-11T03:17:28;20.35;;;15.77;;
30327;SDS011;17133;52.418;13.398;2022-09-11T03:19:53;21.58;;;13.90;;
30327;SDS011;17133;52.418;13.398;2022-09-11T03:22:19;18.00;;;13.07;;
30327;SDS011;17133;52.418;13.398;2022-09-11T03:24:44;18.58;;;13.77;;
30327;SDS011;17133;52.418;13.398;2022-09-11T03:27:10;18.23;;;14.30;;
30327;SDS011;17133;52.418;13.398;2022-09-11T03:29:36;18.80;;;14.93;;
30327;SDS011;17133;52.418;13.398;2022-09-11T03:32:02;20.67;;;13.90;;
30327;SDS011;17133;52.418;13.398;2022-09-11T03:34:29;19.00;;;13.20;;
30327;SDS011;17133;52.418;13.398;2022-09-11T03:36:55;17.33;;;12.35;;
30327;SDS011;17133;52.418;13.398;2022-09-11T03:39:21;15.82;;;13.38;;
30327;SDS011;17133;52.418;13.398;2022-09-11T03:41:47;14.88;;;12.68;;
30327;SDS011;17133;52.418;13.398;2022-09-11T03:44:12;16.15;;;12.38;;
30327;SDS011;17133;52.418;13.398;2022-09-11T03:46:38;22.45;;;15.27;;
30327;SDS011;17133;52.418;13.398;2022-09-11T03:49:04;20.50;;;14.23;;
30327;SDS011;17133;52.418;13.398;2022-09-11T03:51:30;22.90;;;14.38;;
30327;SDS011;17133;52.418;13.398;2022-09-11T03:53:58;23.85;;;18.05;;
30327;SDS011;17133;52.418;13.398;2022-09-11T03:56:24;24.42;;;18.27;;
30327;SDS011;17133;52.418;13.398;2022-09-11T03:58:56;22.65;;;16.58;;
30327;SDS011;17133;52.418;13.398;2022-09-11T04:01:22;25.67;;;19.10;;
30327;SDS011;17133;52.418;13.398;2022-09-11T04:03:49;33.50;;;20.20;;
30327;SDS011;17133;52.418;13.398;2022-09-11T04:06:14;38.88;;;25.98;;
30327;SDS011;17133;52.418;13.398;2022-09-11T04:08:40;40.40;;;28.80;;
30327;SDS011;17133;52.418;13.398;2022-09-11T04:11:06;42.20;;;28.63;;
30327;SDS011;17133;52.418;13.398;2022-09-11T04:13:33;46.20;;;32.50;;
30327;SDS011;17133;52.418;13.398;2022-09-11T04:16:02;46.63;;;32.05;;
30327;SDS011;17133;52.418;13.398;2022-09-11T04:18:30;46.92;;;32.13;;
30327;SDS011;17133;52.418;13.398;2022-09-11T04:20:56;49.30;;;33.00;;
30327;SDS011;17133;52.418;13.398;2022-09-11T04:23:22;45.00;;;32.22;;
30327;SDS011;17133;52.418;13.398;2022-09-11T04:25:48;41.75;;;28.95;;
30327;SDS011;17133;52.418;13.398;2022-09-11T04:28:14;45.00;;;30.48;;
30327;SDS011;17133;52.418;13.398;2022-09-11T04:30:39;40.15;;;28.10;;
30327;SDS011;17133;52.418;13.398;2022-09-11T04:33:06;34.53;;;25.23;;
30327;SDS011;17133;52.418;13.398;2022-09-11T04:35:35;46.00;;;29.98;;
30327;SDS011;17133;52.418;13.398;2022-09-11T04:38:02;46.75;;;30.27;;
30327;SDS011;17133;52.418;13.398;2022-09-11T04:40:27;39.05;;;26.92;;
30327;SDS011;17133;52.418;13.398;2022-09-11T04:42:53;46.20;;;28.92;;
30327;SDS011;17133;52.418;13.398;2022-09-11T04:45:18;42.72;;;26.42;;
30327;SDS011;17133;52.418;13.398;2022-09-11T04:47:44;46.88;;;25.35;;
30327;SDS011;17133;52.418;13.398;2022-09-11T04:50:09;35.05;;;19.92;;
30327;SDS011;17133;52.418;13.398;2022-09-11T04:52:35;38.15;;;22.65;;
30327;SDS011;17133;52.418;13.398;2022-09-11T04:55:00;36.97;;;21.75;;
30327;SDS011;17133;52.418;13.398;2022-09-11T04:57:28;33.28;;;19.98;;
30327;SDS011;17133;52.418;13.398;2022-09-11T04:59:54;34.58;;;20.55;;
30327;SDS011;17133;52.418;13.398;2022-09-11T05:02:20;36.20;;;21.17;;
30327;SDS011;17133;52.418;13.398;2022-09-11T05:04:45;42.58;;;22.95;;
30327;SDS011;17133;52.418;13.398;2022-09-11T05:07:11;50.45;;;25.45;;
30327;SDS011;17133;52.418;13.398;2022-09-11T05:09:39;51.90;;;28.17;;
30327;SDS011;17133;52.418;13.398;2022-09-11T05:12:05;52.47;;;29.45;;
30327;SDS011;17133;52.418;13.398;2022-09-11T05:14:30;59.75;;;30.45;;
30327;SDS011;17133;52.418;13.398;2022-09-11T05:16:56;58.35;;;29.98;;
30327;SDS011;17133;52.418;13.398;2022-09-11T05:19:22;47.97;;;26.50;;
30327;SDS011;17133;52.418;13.398;2022-09-11T05:21:49;48.63;;;27.48;;
30327;SDS011;17133;52.418;13.398;2022-09-11T05:24:15;45.90;;;25.45;;
30327;SDS011;17133;52.418;13.398;2022-09-11T05:26:40;51.55;;;26.08;;
30327;SDS011;17133;52.418;13.398;2022-09-11T05:29:07;54.30;;;28.95;;
30327;SDS011;17133;52.418;13.398;2022-09-11T05:31:36;46.03;;;25.10;;
30327;SDS011;17133;52.418;13.398;2022-09-11T05:34:02;51.10;;;26.65;;
30327;SDS011;17133;52.418;13.398;2022-09-11T05:36:29;49.38;;;27.40;;
30327;SDS011;17133;52.418;13.398;2022-09-11T05:38:59;45.50;;;26.13;;
30327;SDS011;17133;52.418;13.398;2022-09-11T05:41:24;44.28;;;24.73;;
30327;SDS011;17133;52.418;13.398;2022-09-11T05:43:50;45.70;;;26.98;;
30327;SDS011;17133;52.418;13.398;2022-09-11T05:46:17;60.70;;;30.00;;
30327;SDS011;17133;52.418;13.398;2022-09-11T05:48:43;48.47;;;27.88;;
30327;SDS011;17133;52.418;13.398;2022-09-11T05:51:13;37.92;;;22.88;;
30327;SDS011;17133;52.418;13.398;2022-09-11T05:53:41;55.35;;;29.23;;
30327;SDS011;17133;52.418;13.398;2022-09-11T05:56:07;52.38;;;29.38;;
30327;SDS011;17133;52.418;13.398;2022-09-11T05:58:35;46.60;;;28.67;;
30327;SDS011;17133;52.418;13.398;2022-09-11T06:01:02;55.05;;;28.58;;
30327;SDS011;17133;52.418;13.398;2022-09-11T06:03:29;45.88;;;29.48;;
30327;SDS011;17133;52.418;13.398;2022-09-11T06:05:58;45.83;;;26.20;;
30327;SDS011;17133;52.418;13.398;2022-09-11T06:08:25;52.83;;;29.73;;
30327;SDS011;17133;52.418;13.398;2022-09-11T06:10:52;43.85;;;26.25;;
30327;SDS011;17133;52.418;13.398;2022-09-11T06:13:17;44.30;;;25.77;;
30327;SDS011;17133;52.418;13.398;2022-09-11T06:15:43;45.30;;;28.20;;
30327;SDS011;17133;52.418;13.398;2022-09-11T06:18:10;42.10;;;25.25;;
30327;SDS011;17133;52.418;13.398;2022-09-11T06:20:35;49.05;;;26.40;;
30327;SDS011;17133;52.418;13.398;2022-09-11T06:23:01;39.25;;;25.15;;
30327;SDS011;17133;52.418;13.398;2022-09-11T06:25:26;40.25;;;25.48;;
30327;SDS011;17133;52.418;13.398;2022-09-11T06:27:52;44.60;;;25.27;;
30327;SDS011;17133;52.418;13.398;2022-09-11T06:30:17;42.97;;;24.08;;
30327;SDS011;17133;52.418;13.398;2022-09-11T06:32:43;43.88;;;25.60;;
30327;SDS011;17133;52.418;13.398;2022-09-11T06:35:12;38.13;;;23.42;;
30327;SDS011;17133;52.418;13.398;2022-09-11T06:37:38;40.50;;;26.27;;
30327;SDS011;17133;52.418;13.398;2022-09-11T06:40:04;41.47;;;25.20;;
30327;SDS011;17133;52.418;13.398;2022-09-11T06:42:29;48.80;;;28.42;;
30327;SDS011;17133;52.418;13.398;2022-09-11T06:44:55;53.17;;;29.58;;
30327;SDS011;17133;52.418;13.398;2022-09-11T06:47:21;49.47;;;29.90;;
30327;SDS011;17133;52.418;13.398;2022-09-11T06:49:47;48.95;;;28.52;;
30327;SDS011;17133;52.418;13.398;2022-09-11T06:52:13;50.13;;;29.75;;
30327;SDS011;17133;52.418;13.398;2022-09-11T06:54:38;49.78;;;27.63;;
30327;SDS011;17133;52.418;13.398;2022-09-11T06:57:04;41.97;;;26.55;;
30327;SDS011;17133;52.418;13.398;2022-09-11T06:59:30;51.15;;;28.20;;
30327;SDS011;17133;52.418;13.398;2022-09-11T07:01:55;60.05;;;30.70;;
30327;SDS011;17133;52.418;13.398;2022-09-11T07:04:21;47.03;;;27.27;;
30327;SDS011;17133;52.418;13.398;2022-09-11T07:06:47;44.55;;;26.52;;
30327;SDS011;17133;52.418;13.398;2022-09-11T07:09:13;46.92;;;28.25;;
30327;SDS011;17133;52.418;13.398;2022-09-11T07:11:38;42.80;;;28.52;;
30327;SDS011;17133;52.418;13.398;2022-09-11T07:14:07;44.85;;;25.77;;
30327;SDS011;17133;52.418;13.398;2022-09-11T07:16:33;38.45;;;25.50;;
30327;SDS011;17133;52.418;13.398;2022-09-11T07:18:59;41.15;;;25.98;;
30327;SDS011;17133;52.418;13.398;2022-09-11T07:21:26;38.58;;;24.42;;
30327;SDS011;17133;52.418;13.398;2022-09-11T07:23:53;40.58;;;24.92;;
30327;SDS011;17133;52.418;13.398;2022-09-11T07:26:20;35.08;;;23.98;;
30327;SDS011;17133;52.418;13.398;2022-09-11T07:28:47;37.63;;;24.35;;
30327;SDS011;17133;52.418;13.398;2022-09-11T07:31:16;38.05;;;23.38;;
30327;SDS011;17133;52.418;13.398;2022-09-11T07:33:43;37.95;;;24.80;;
30327;SDS011;17133;52.418;13.398;2022-09-11T07:36:29;36.13;;;22.83;;
30327;SDS011;17133;52.418;13.398;2022-09-11T07:38:56;33.28;;;21.85;;
30327;SDS011;17133;52.418;13.398;2022-09-11T07:41:23;36.00;;;21.20;;
30327;SDS011;17133;52.418;13.398;2022-09-11T07:43:53;31.15;;;21.02;;
30327;SDS011;17133;52.418;13.398;2022-09-11T07:46:19;31.02;;;20.70;;
30327;SDS011;17133;52.418;13.398;2022-09-11T07:48:45;30.17;;;20.90;;
30327;SDS011;17133;52.418;13.398;2022-09-11T07:51:12;29.55;;;20.95;;
30327;SDS011;17133;52.418;13.398;2022-09-11T07:56:07;29.83;;;19.55;;
30327;SDS011;17133;52.418;13.398;2022-09-11T07:58:34;28.23;;;18.58;;
30327;SDS011;17133;52.418;13.398;2022-09-11T08:01:02;27.60;;;18.77;;
30327;SDS011;17133;52.418;13.398;2022-09-11T08:03:33;29.90;;;19.02;;
30327;SDS011;17133;52.418;13.398;2022-09-11T08:05:59;23.30;;;16.65;;
30327;SDS011;17133;52.418;13.398;2022-09-11T08:08:27;25.35;;;16.27;;
30327;SDS011;17133;52.418;13.398;2022-09-11T08:10:54;24.80;;;17.27;;
30327;SDS011;17133;52.418;13.398;2022-09-11T08:13:21;23.83;;;16.00;;
30327;SDS011;17133;52.418;13.398;2022-09-11T08:15:47;22.15;;;15.73;;
30327;SDS011;17133;52.418;13.398;2022-09-11T08:18:14;22.58;;;15.20;;
30327;SDS011;17133;52.418;13.398;2022-09-11T08:20:40;20.48;;;15.00;;
30327;SDS011;17133;52.418;13.398;2022-09-11T08:23:06;19.63;;;15.20;;
30327;SDS011;17133;52.418;13.398;2022-09-11T08:25:33;16.27;;;12.18;;
30327;SDS011;17133;52.418;13.398;2022-09-11T08:28:00;20.70;;;14.35;;
30327;SDS011;17133;52.418;13.398;2022-09-11T08:30:26;23.35;;;15.10;;
30327;SDS011;17133;52.418;13.398;2022-09-11T08:32:52;20.80;;;14.80;;
30327;SDS011;17133;52.418;13.398;2022-09-11T08:35:18;17.80;;;13.55;;
30327;SDS011;17133;52.418;13.398;2022-09-11T08:37:44;20.50;;;13.65;;
30327;SDS011;17133;52.418;13.398;2022-09-11T08:40:09;24.13;;;14.07;;
30327;SDS011;17133;52.418;13.398;2022-09-11T08:42:38;17.05;;;12.68;;
30327;SDS011;17133;52.418;13.398;2022-09-11T08:45:05;20.88;;;13.77;;
30327;SDS011;17133;52.418;13.398;2022-09-11T08:47:36;18.48;;;13.45;;
30327;SDS011;17133;52.418;13.398;2022-09-11T08:50:06;23.65;;;14.88;;
30327;SDS011;17133;52.418;13.398;2022-09-11T08:52:46;19.38;;;14.50;;
30327;SDS011;17133;52.418;13.398;2022-09-11T08:55:13;20.35;;;14.63;;
30327;SDS011;17133;52.418;13.398;2022-09-11T09:03:08;19.83;;;14.50;;
30327;SDS011;17133;52.418;13.398;2022-09-11T09:12:04;23.30;;;15.65;;
30327;SDS011;17133;52.418;13.398;2022-09-11T09:17:05;19.52;;;13.18;;
30327;SDS011;17133;52.418;13.398;2022-09-11T09:22:22;18.92;;;13.48;;
30327;SDS011;17133;52.418;13.398;2022-09-11T09:25:03;18.17;;;12.77;;
30327;SDS011;17133;52.418;13.398;2022-09-11T09:27:44;20.95;;;13.05;;
30327;SDS011;17133;52.418;13.398;2022-09-11T09:30:14;20.75;;;12.57;;
30327;SDS011;17133;52.418;13.398;2022-09-11T09:32:50;17.90;;;12.77;;
30327;SDS011;17133;52.418;13.398;2022-09-11T09:35:24;17.42;;;12.48;;
30327;SDS011;17133;52.418;13.398;2022-09-11T09:38:07;18.25;;;11.93;;
30327;SDS011;17133;52.418;13.398;2022-09-11T09:40:38;20.05;;;12.13;;
30327;SDS011;17133;52.418;13.398;2022-09-11T09:48:32;15.68;;;11.48;;
30327;SDS011;17133;52.418;13.398;2022-09-11T09:51:03;19.20;;;12.10;;
30327;SDS011;17133;52.418;13.398;2022-09-11T09:56:00;17.60;;;12.15;;
30327;SDS011;17133;52.418;13.398;2022-09-11T09:58:33;15.13;;;12.10;;
30327;SDS011;17133;52.418;13.398;2022-09-11T10:01:05;17.10;;;11.93;;
30327;SDS011;17133;52.418;13.398;2022-09-11T10:04:08;17.45;;;11.68;;
30327;SDS011;17133;52.418;13.398;2022-09-11T10:06:35;16.67;;;11.57;;
30327;SDS011;17133;52.418;13.398;2022-09-11T10:09:01;18.13;;;12.52;;
30327;SDS011;17133;52.418;13.398;2022-09-11T10:11:27;16.08;;;11.80;;
30327;SDS011;17133;52.418;13.398;2022-09-11T10:13:53;17.92;;;12.82;;
30327;SDS011;17133;52.418;13.398;2022-09-11T10:16:20;14.43;;;10.23;;
30327;SDS011;17133;52.418;13.398;2022-09-11T10:18:52;14.68;;;11.00;;
30327;SDS011;17133;52.418;13.398;2022-09-11T10:21:20;15.20;;;10.15;;
30327;SDS011;17133;52.418;13.398;2022-09-11T10:26:15;15.60;;;11.38;;
30327;SDS011;17133;52.418;13.398;2022-09-11T10:28:52;13.43;;;9.48;;
30327;SDS011;17133;52.418;13.398;2022-09-11T10:31:22;17.98;;;11.43;;
30327;SDS011;17133;52.418;13.398;2022-09-11T10:33:52;16.13;;;12.25;;
30327;SDS011;17133;52.418;13.398;2022-09-11T10:36:21;16.40;;;11.57;;
30327;SDS011;17133;52.418;13.398;2022-09-11T10:38:48;15.60;;;12.07;;
30327;SDS011;17133;52.418;13.398;2022-09-11T10:41:21;14.35;;;11.40;;
30327;SDS011;17133;52.418;13.398;2022-09-11T10:48:42;14.57;;;10.77;;
30327;SDS011;17133;52.418;13.398;2022-09-11T10:51:34;15.38;;;10.75;;
30327;SDS011;17133;52.418;13.398;2022-09-11T10:57:00;12.82;;;9.82;;
30327;SDS011;17133;52.418;13.398;2022-09-11T11:02:37;16.67;;;9.30;;
30327;SDS011;17133;52.418;13.398;2022-09-11T11:05:39;17.13;;;9.90;;
30327;SDS011;17133;52.418;13.398;2022-09-11T11:10:49;13.05;;;8.82;;
30327;SDS011;17133;52.418;13.398;2022-09-11T11:25:20;13.98;;;9.45;;
30327;SDS011;17133;52.418;13.398;2022-09-11T11:30:28;15.02;;;8.43;;
30327;SDS011;17133;52.418;13.398;2022-09-11T11:33:04;14.13;;;8.40;;
30327;SDS011;17133;52.418;13.398;2022-09-11T11:36:09;11.75;;;8.15;;
30327;SDS011;17133;52.418;13.398;2022-09-11T11:38:53;14.65;;;7.65;;
30327;SDS011;17133;52.418;13.398;2022-09-11T11:41:47;11.10;;;7.65;;
30327;SDS011;17133;52.418;13.398;2022-09-11T11:44:28;13.00;;;8.60;;
30327;SDS011;17133;52.418;13.398;2022-09-11T11:47:12;11.48;;;8.60;;
30327;SDS011;17133;52.418;13.398;2022-09-11T11:52:28;13.93;;;9.13;;
30327;SDS011;17133;52.418;13.398;2022-09-11T11:57:38;10.48;;;7.95;;
30327;SDS011;17133;52.418;13.398;2022-09-11T12:02:54;10.07;;;7.22;;
30327;SDS011;17133;52.418;13.398;2022-09-11T12:05:41;11.07;;;7.10;;
30327;SDS011;17133;52.418;13.398;2022-09-11T12:08:12;8.38;;;6.43;;
30327;SDS011;17133;52.418;13.398;2022-09-11T12:10:40;11.95;;;7.88;;
30327;SDS011;17133;52.418;13.398;2022-09-11T12:13:20;9.93;;;7.43;;
30327;SDS011;17133;52.418;13.398;2022-09-11T12:15:56;12.82;;;7.63;;
30327;SDS011;17133;52.418;13.398;2022-09-11T12:18:34;12.80;;;7.25;;
30327;SDS011;17133;52.418;13.398;2022-09-11T12:26:16;8.93;;;7.32;;
30327;SDS011;17133;52.418;13.398;2022-09-11T12:28:46;11.07;;;6.75;;
30327;SDS011;17133;52.418;13.398;2022-09-11T12:31:14;13.13;;;6.57;;
30327;SDS011;17133;52.418;13.398;2022-09-11T12:38:40;9.38;;;6.65;;
30327;SDS011;17133;52.418;13.398;2022-09-11T12:41:15;9.05;;;6.80;;
30327;SDS011;17133;52.418;13.398;2022-09-11T12:43:58;8.80;;;6.88;;
30327;SDS011;17133;52.418;13.398;2022-09-11T12:51:35;11.57;;;7.22;;
30327;SDS011;17133;52.418;13.398;2022-09-11T12:57:00;8.30;;;6.25;;
30327;SDS011;17133;52.418;13.398;2022-09-11T12:59:35;12.10;;;6.93;;
30327;SDS011;17133;52.418;13.398;2022-09-11T13:02:18;9.35;;;5.43;;
30327;SDS011;17133;52.418;13.398;2022-09-11T13:05:02;10.25;;;5.63;;
30327;SDS011;17133;52.418;13.398;2022-09-11T13:10:05;7.97;;;5.40;;
30327;SDS011;17133;52.418;13.398;2022-09-11T13:14:59;8.15;;;5.65;;
30327;SDS011;17133;52.418;13.398;2022-09-11T13:17:29;7.63;;;5.72;;
30327;SDS011;17133;52.418;13.398;2022-09-11T13:22:31;7.43;;;5.43;;
30327;SDS011;17133;52.418;13.398;2022-09-11T13:25:15;7.65;;;5.18;;
30327;SDS011;17133;52.418;13.398;2022-09-11T13:30:14;6.45;;;5.32;;
30327;SDS011;17133;52.418;13.398;2022-09-11T13:35:13;7.03;;;5.07;;
30327;SDS011;17133;52.418;13.398;2022-09-11T13:37:46;10.68;;;5.00;;
30327;SDS011;17133;52.418;13.398;2022-09-11T13:40:24;9.95;;;5.95;;
30327;SDS011;17133;52.418;13.398;2022-09-11T13:42:55;9.32;;;5.30;;
30327;SDS011;17133;52.418;13.398;2022-09-11T13:45:22;5.85;;;4.35;;
30327;SDS011;17133;52.418;13.398;2022-09-11T13:47:48;7.15;;;5.95;;
30327;SDS011;17133;52.418;13.398;2022-09-11T13:50:14;7.53;;;5.25;;
30327;SDS011;17133;52.418;13.398;2022-09-11T13:52:42;9.55;;;6.70;;
30327;SDS011;17133;52.418;13.398;2022-09-11T13:55:16;8.93;;;6.50;;
30327;SDS011;17133;52.418;13.398;2022-09-11T13:57:51;7.72;;;6.03;;
30327;SDS011;17133;52.418;13.398;2022-09-11T14:00:35;9.70;;;6.00;;
30327;SDS011;17133;52.418;13.398;2022-09-11T14:03:21;9.55;;;6.50;;
30327;SDS011;17133;52.418;13.398;2022-09-11T14:05:52;8.75;;;5.95;;
30327;SDS011;17133;52.418;13.398;2022-09-11T14:08:21;6.60;;;5.13;;
30327;SDS011;17133;52.418;13.398;2022-09-11T14:10:52;8.23;;;5.78;;
30327;SDS011;17133;52.418;13.398;2022-09-11T14:13:21;8.43;;;5.40;;
30327;SDS011;17133;52.418;13.398;2022-09-11T14:16:04;11.05;;;7.72;;
30327;SDS011;17133;52.418;13.398;2022-09-11T14:18:47;5.60;;;4.93;;
30327;SDS011;17133;52.418;13.398;2022-09-11T14:21:18;7.82;;;5.32;;
30327;SDS011;17133;52.418;13.398;2022-09-11T14:23:53;6.07;;;5.28;;
30327;SDS011;17133;52.418;13.398;2022-09-11T14:26:25;6.05;;;4.57;;
30327;SDS011;17133;52.418;13.398;2022-09-11T14:29:05;5.40;;;3.92;;
30327;SDS011;17133;52.418;13.398;2022-09-11T14:31:50;8.45;;;4.38;;
30327;SDS011;17133;52.418;13.398;2022-09-11T14:34:18;5.13;;;3.58;;
30327;SDS011;17133;52.418;13.398;2022-09-11T14:37:04;5.25;;;3.85;;
30327;SDS011;17133;52.418;13.398;2022-09-11T14:39:35;4.47;;;3.10;;
30327;SDS011;17133;52.418;13.398;2022-09-11T14:42:19;4.10;;;3.28;;
30327;SDS011;17133;52.418;13.398;2022-09-11T14:44:47;5.95;;;3.67;;
30327;SDS011;17133;52.418;13.398;2022-09-11T14:47:17;5.00;;;3.47;;
30327;SDS011;17133;52.418;13.398;2022-09-11T14:49:53;5.32;;;3.60;;
30327;SDS011;17133;52.418;13.398;2022-09-11T14:52:23;7.40;;;3.88;;
30327;SDS011;17133;52.418;13.398;2022-09-11T14:54:50;5.65;;;4.30;;
30327;SDS011;17133;52.418;13.398;2022-09-11T14:57:18;7.55;;;4.40;;
30327;SDS011;17133;52.418;13.398;2022-09-11T14:59:48;6.93;;;4.22;;
30327;SDS011;17133;52.418;13.398;2022-09-11T15:02:16;6.13;;;4.60;;
30327;SDS011;17133;52.418;13.398;2022-09-11T15:04:49;6.68;;;4.88;;
30327;SDS011;17133;52.418;13.398;2022-09-11T15:07:17;4.93;;;4.30;;
30327;SDS011;17133;52.418;13.398;2022-09-11T15:09:44;5.68;;;4.38;;
30327;SDS011;17133;52.418;13.398;2022-09-11T15:12:10;5.63;;;4.40;;
30327;SDS011;17133;52.418;13.398;2022-09-11T15:14:38;6.32;;;4.95;;
30327;SDS011;17133;52.418;13.398;2022-09-11T15:17:06;7.22;;;5.38;;
30327;SDS011;17133;52.418;13.398;2022-09-11T15:19:32;7.10;;;4.93;;
30327;SDS011;17133;52.418;13.398;2022-09-11T15:22:02;8.18;;;5.10;;
30327;SDS011;17133;52.418;13.398;2022-09-11T15:24:29;11.45;;;5.22;;
30327;SDS011;17133;52.418;13.398;2022-09-11T15:26:56;6.20;;;5.03;;
30327;SDS011;17133;52.418;13.398;2022-09-11T15:29:22;6.15;;;4.55;;
30327;SDS011;17133;52.418;13.398;2022-09-11T15:31:49;4.97;;;4.50;;
30327;SDS011;17133;52.418;13.398;2022-09-11T15:34:17;6.05;;;3.97;;
30327;SDS011;17133;52.418;13.398;2022-09-11T15:36:44;5.95;;;4.20;;
30327;SDS011;17133;52.418;13.398;2022-09-11T15:39:11;10.00;;;4.70;;
30327;SDS011;17133;52.418;13.398;2022-09-11T15:41:38;7.22;;;4.57;;
30327;SDS011;17133;52.418;13.398;2022-09-11T15:44:11;8.73;;;4.68;;
30327;SDS011;17133;52.418;13.398;2022-09-11T15:46:40;8.55;;;4.35;;
30327;SDS011;17133;52.418;13.398;2022-09-11T15:49:07;6.57;;;4.18;;
30327;SDS011;17133;52.418;13.398;2022-09-11T15:51:32;6.03;;;4.53;;
30327;SDS011;17133;52.418;13.398;2022-09-11T15:53:58;15.38;;;5.45;;
30327;SDS011;17133;52.418;13.398;2022-09-11T15:56:24;8.63;;;4.80;;
30327;SDS011;17133;52.418;13.398;2022-09-11T15:58:51;7.00;;;4.47;;
30327;SDS011;17133;52.418;13.398;2022-09-11T16:01:17;6.53;;;3.85;;
30327;SDS011;17133;52.418;13.398;2022-09-11T16:03:51;6.72;;;4.63;;
30327;SDS011;17133;52.418;13.398;2022-09-11T16:06:18;5.00;;;3.90;;
30327;SDS011;17133;52.418;13.398;2022-09-11T16:08:45;5.25;;;4.18;;
30327;SDS011;17133;52.418;13.398;2022-09-11T16:11:10;8.18;;;4.10;;
30327;SDS011;17133;52.418;13.398;2022-09-11T16:13:38;7.13;;;4.00;;
30327;SDS011;17133;52.418;13.398;2022-09-11T16:16:04;8.73;;;4.00;;
30327;SDS011;17133;52.418;13.398;2022-09-11T16:18:33;5.10;;;3.50;;
30327;SDS011;17133;52.418;13.398;2022-09-11T16:21:01;4.32;;;3.13;;
30327;SDS011;17133;52.418;13.398;2022-09-11T16:23:28;4.22;;;3.25;;
30327;SDS011;17133;52.418;13.398;2022-09-11T16:25:54;4.93;;;3.22;;
30327;SDS011;17133;52.418;13.398;2022-09-11T16:28:20;4.28;;;2.55;;
30327;SDS011;17133;52.418;13.398;2022-09-11T16:30:50;6.07;;;3.17;;
30327;SDS011;17133;52.418;13.398;2022-09-11T16:33:17;5.25;;;3.28;;
30327;SDS011;17133;52.418;13.398;2022-09-11T16:35:43;5.30;;;3.20;;